Wetterdaten: Woche 09.10.17 - 15.10.17 (KW41)
Datum Zeit Temperatur Luftfeuchte Luftdruck Niederschlag Windrichtung Sonnenschein Solar Wind
09.10.2017 00:00 9,1 C 98 % 1019,1 hPa 0,0 l/m SW 0,00 h 0 W/m 2,1 km/h (1 Bft)
09.10.2017 01:00 8,8 C 98 % 1019,0 hPa 0,0 l/m SW 0,00 h 0 W/m 1,9 km/h (1 Bft)
09.10.2017 02:00 8,4 C 98 % 1019,0 hPa 0,0 l/m N 0,00 h 0 W/m 0,0 km/h (0 Bft)
09.10.2017 03:00 8,2 C 98 % 1018,8 hPa 0,0 l/m N 0,00 h 0 W/m 0,0 km/h (0 Bft)
09.10.2017 04:00 8,3 C 98 % 1018,7 hPa 0,0 l/m N 0,00 h 0 W/m 0,0 km/h (0 Bft)
09.10.2017 05:00 8,2 C 99 % 1018,7 hPa 0,0 l/m N 0,00 h 0 W/m 0,0 km/h (0 Bft)
09.10.2017 06:00 8,2 C 99 % 1018,7 hPa 0,0 l/m N 0,00 h 0 W/m 0,4 km/h (0 Bft)
09.10.2017 07:00 8,2 C 99 % 1018,8 hPa 0,0 l/m N 0,00 h 10 W/m 0,0 km/h (0 Bft)
09.10.2017 08:00 8,5 C 99 % 1019,0 hPa 0,0 l/m SW 0,00 h 53 W/m 0,9 km/h (0 Bft)
09.10.2017 09:00 9,2 C 99 % 1019,4 hPa 0,0 l/m N 0,00 h 123 W/m 0,5 km/h (0 Bft)
09.10.2017 10:00 10,3 C 97 % 1019,5 hPa 0,0 l/m SW 0,00 h 208 W/m 2,9 km/h (1 Bft)
09.10.2017 11:00 11,3 C 90 % 1019,5 hPa 0,0 l/m SW 0,08 h 236 W/m 4,9 km/h (1 Bft)
09.10.2017 12:00 12,0 C 84 % 1019,3 hPa 0,0 l/m SW 0,42 h 319 W/m 6,2 km/h (2 Bft)
09.10.2017 13:00 11,9 C 83 % 1018,9 hPa 1,6 l/m N-NW 0,17 h 181 W/m 10,9 km/h (2 Bft)
09.10.2017 14:00 10,8 C 91 % 1018,9 hPa 0,0 l/m N-NW 0,00 h 162 W/m 5,6 km/h (1 Bft)
09.10.2017 15:00 11,3 C 89 % 1018,8 hPa 0,0 l/m N-NW 0,00 h 171 W/m 6,7 km/h (2 Bft)
09.10.2017 16:00 10,9 C 90 % 1018,7 hPa 0,0 l/m N 0,00 h 68 W/m 0,0 km/h (0 Bft)
09.10.2017 17:00 10,7 C 93 % 1018,7 hPa 0,0 l/m N 0,00 h 33 W/m 0,0 km/h (0 Bft)
09.10.2017 18:00 10,3 C 95 % 1018,8 hPa 0,0 l/m N 0,00 h 15 W/m 0,0 km/h (0 Bft)
09.10.2017 19:00 9,7 C 95 % 1019,0 hPa 0,0 l/m NW 0,00 h 0 W/m 1,9 km/h (1 Bft)
09.10.2017 20:00 9,4 C 95 % 1019,0 hPa 0,0 l/m N 0,00 h 0 W/m 0,0 km/h (0 Bft)
09.10.2017 21:00 9,4 C 97 % 1019,1 hPa 0,0 l/m NW 0,00 h 0 W/m 1,2 km/h (1 Bft)
09.10.2017 22:00 9,4 C 97 % 1019,2 hPa 0,0 l/m W-NW 0,00 h 0 W/m 2,5 km/h (1 Bft)
09.10.2017 23:00 8,8 C 97 % 1019,2 hPa 0,2 l/m N 0,00 h 0 W/m 0,8 km/h (0 Bft)
10.10.2017 00:00 7,7 C 98 % 1019,0 hPa 0,0 l/m N 0,00 h 0 W/m 0,1 km/h (0 Bft)
10.10.2017 01:00 7,0 C 98 % 1018,9 hPa 0,0 l/m N 0,00 h 0 W/m 0,0 km/h (0 Bft)
10.10.2017 02:00 6,3 C 98 % 1018,9 hPa 0,0 l/m N 0,00 h 0 W/m 0,0 km/h (0 Bft)
10.10.2017 03:00 6,1 C 98 % 1018,7 hPa 0,0 l/m N 0,00 h 0 W/m 0,0 km/h (0 Bft)
10.10.2017 04:00 6,6 C 99 % 1018,5 hPa 0,0 l/m N 0,00 h 0 W/m 0,3 km/h (0 Bft)
10.10.2017 05:00 6,8 C 99 % 1018,2 hPa 0,0 l/m W-NW 0,00 h 0 W/m 3,5 km/h (1 Bft)
10.10.2017 06:00 6,9 C 99 % 1018,2 hPa 0,0 l/m W 0,00 h 0 W/m 3,9 km/h (1 Bft)
10.10.2017 07:00 7,0 C 99 % 1018,5 hPa 0,2 l/m W-SW 0,00 h 8 W/m 9,3 km/h (2 Bft)
10.10.2017 08:00 7,5 C 99 % 1018,7 hPa 0,0 l/m W-SW 0,00 h 50 W/m 7,3 km/h (2 Bft)
10.10.2017 09:00 8,2 C 100 % 1019,1 hPa 0,0 l/m SW 0,00 h 118 W/m 9,7 km/h (2 Bft)
10.10.2017 10:00 9,4 C 99 % 1019,4 hPa 0,0 l/m S-SW 0,08 h 194 W/m 10,6 km/h (2 Bft)
10.10.2017 11:00 10,2 C 98 % 1019,6 hPa 0,0 l/m S-SW 0,17 h 261 W/m 16,4 km/h (3 Bft)
10.10.2017 12:00 12,2 C 87 % 1019,5 hPa 0,0 l/m W-SW 0,58 h 384 W/m 22,0 km/h (4 Bft)
10.10.2017 13:00 12,8 C 83 % 1019,4 hPa 0,0 l/m W-SW 0,25 h 293 W/m 21,2 km/h (4 Bft)
10.10.2017 14:00 12,7 C 84 % 1019,1 hPa 0,0 l/m W-SW 0,00 h 152 W/m 13,6 km/h (3 Bft)
10.10.2017 15:00 12,7 C 87 % 1019,0 hPa 0,0 l/m W-SW 0,00 h 105 W/m 7,8 km/h (2 Bft)
10.10.2017 16:00 12,8 C 84 % 1018,9 hPa 0,0 l/m W-SW 0,00 h 72 W/m 8,6 km/h (2 Bft)
10.10.2017 17:00 12,8 C 85 % 1018,9 hPa 0,0 l/m W-SW 0,00 h 53 W/m 5,2 km/h (1 Bft)
10.10.2017 18:00 12,5 C 89 % 1019,5 hPa 0,0 l/m N 0,25 h 26 W/m 0,0 km/h (0 Bft)
10.10.2017 19:00 11,3 C 93 % 1020,0 hPa 0,0 l/m N 0,00 h 0 W/m 0,0 km/h (0 Bft)
10.10.2017 20:00 10,5 C 96 % 1020,3 hPa 0,0 l/m W-SW 0,00 h 0 W/m 1,2 km/h (1 Bft)
10.10.2017 21:00 10,8 C 95 % 1020,5 hPa 0,0 l/m N 0,00 h 0 W/m 0,0 km/h (0 Bft)
10.10.2017 22:00 10,7 C 95 % 1020,6 hPa 0,0 l/m W-SW 0,00 h 0 W/m 2,3 km/h (1 Bft)
10.10.2017 23:00 10,6 C 93 % 1020,6 hPa 0,0 l/m W-SW 0,00 h 0 W/m 5,0 km/h (1 Bft)
11.10.2017 00:00 10,1 C 95 % 1020,3 hPa 0,0 l/m W-SW 0,00 h 0 W/m 7,8 km/h (2 Bft)
11.10.2017 01:00 9,7 C 95 % 1020,0 hPa 0,0 l/m W-SW 0,00 h 0 W/m 8,2 km/h (2 Bft)
11.10.2017 02:00 8,7 C 96 % 1020,0 hPa 0,0 l/m N 0,00 h 0 W/m 1,2 km/h (1 Bft)
11.10.2017 03:00 7,8 C 97 % 1020,1 hPa 0,0 l/m N 0,00 h 0 W/m 0,0 km/h (0 Bft)
11.10.2017 04:00 7,2 C 97 % 1020,2 hPa 0,0 l/m N 0,00 h 0 W/m 0,0 km/h (0 Bft)
11.10.2017 05:00 6,6 C 98 % 1020,2 hPa 0,0 l/m N 0,00 h 0 W/m 0,0 km/h (0 Bft)
11.10.2017 06:00 6,2 C 98 % 1020,3 hPa 0,0 l/m N 0,00 h 0 W/m 0,0 km/h (0 Bft)
11.10.2017 07:00 6,1 C 98 % 1020,3 hPa 0,0 l/m N 0,00 h 10 W/m 0,0 km/h (0 Bft)
11.10.2017 08:00 6,3 C 99 % 1020,6 hPa 0,0 l/m N 0,00 h 62 W/m 0,0 km/h (0 Bft)
11.10.2017 09:00 7,9 C 99 % 1021,0 hPa 0,0 l/m N 0,67 h 180 W/m 0,0 km/h (0 Bft)
11.10.2017 10:00 10,4 C 96 % 1020,8 hPa 0,0 l/m S 1,00 h 386 W/m 6,3 km/h (2 Bft)
11.10.2017 11:00 13,1 C 88 % 1020,6 hPa 0,0 l/m S-SW 0,92 h 451 W/m 10,2 km/h (2 Bft)
11.10.2017 12:00 15,1 C 82 % 1020,2 hPa 0,0 l/m S 1,00 h 544 W/m 11,3 km/h (2 Bft)
11.10.2017 13:00 16,4 C 77 % 1019,5 hPa 0,0 l/m S-SW 0,83 h 482 W/m 12,1 km/h (2 Bft)
11.10.2017 14:00 17,3 C 70 % 1018,8 hPa 0,0 l/m W-SW 1,00 h 519 W/m 14,2 km/h (3 Bft)
11.10.2017 15:00 17,6 C 66 % 1018,4 hPa 0,0 l/m SW 1,00 h 410 W/m 13,4 km/h (3 Bft)
11.10.2017 16:00 17,3 C 64 % 1018,1 hPa 0,0 l/m W 1,00 h 277 W/m 12,9 km/h (3 Bft)
11.10.2017 17:00 16,5 C 69 % 1017,9 hPa 0,0 l/m W-SW 0,50 h 99 W/m 10,4 km/h (2 Bft)
11.10.2017 18:00 14,1 C 79 % 1018,0 hPa 0,0 l/m SW 0,08 h 14 W/m 3,7 km/h (1 Bft)
11.10.2017 19:00 11,7 C 88 % 1018,3 hPa 0,0 l/m N 0,00 h 0 W/m 0,0 km/h (0 Bft)
11.10.2017 20:00 10,3 C 93 % 1018,4 hPa 0,0 l/m N 0,00 h 0 W/m 0,0 km/h (0 Bft)
11.10.2017 21:00 10,4 C 94 % 1018,7 hPa 0,0 l/m SW 0,00 h 0 W/m 5,1 km/h (1 Bft)
11.10.2017 22:00 10,7 C 90 % 1019,0 hPa 0,0 l/m W-SW 0,00 h 0 W/m 4,7 km/h (1 Bft)
11.10.2017 23:00 11,5 C 88 % 1019,2 hPa 0,0 l/m W-SW 0,00 h 0 W/m 13,7 km/h (3 Bft)
12.10.2017 00:00 11,8 C 85 % 1019,2 hPa 0,0 l/m SW 0,00 h 0 W/m 16,2 km/h (3 Bft)
12.10.2017 01:00 10,9 C 88 % 1019,3 hPa 0,0 l/m W-SW 0,00 h 0 W/m 10,9 km/h (2 Bft)
12.10.2017 02:00 9,5 C 91 % 1019,5 hPa 0,0 l/m W-SW 0,00 h 0 W/m 5,1 km/h (1 Bft)
12.10.2017 03:00 9,2 C 94 % 1019,5 hPa 0,0 l/m SW 0,00 h 0 W/m 10,8 km/h (2 Bft)
12.10.2017 04:00 8,6 C 94 % 1019,5 hPa 0,0 l/m N 0,00 h 0 W/m 0,0 km/h (0 Bft)
12.10.2017 05:00 9,9 C 94 % 1019,5 hPa 0,0 l/m SW 0,00 h 0 W/m 14,0 km/h (3 Bft)
12.10.2017 06:00 10,1 C 90 % 1019,5 hPa 0,0 l/m SW 0,00 h 0 W/m 13,2 km/h (3 Bft)
12.10.2017 07:00 8,6 C 92 % 1020,1 hPa 0,0 l/m SW 0,08 h 11 W/m 12,6 km/h (3 Bft)
12.10.2017 08:00 8,7 C 94 % 1020,8 hPa 0,0 l/m SW 0,17 h 66 W/m 11,4 km/h (2 Bft)
12.10.2017 09:00 10,3 C 93 % 1021,7 hPa 0,0 l/m SW 0,00 h 106 W/m 14,4 km/h (3 Bft)
12.10.2017 10:00 12,2 C 91 % 1022,4 hPa 0,0 l/m SW 0,33 h 203 W/m 16,1 km/h (3 Bft)
12.10.2017 11:00 14,6 C 84 % 1023,2 hPa 0,0 l/m W-SW 0,08 h 120 W/m 15,6 km/h (3 Bft)
12.10.2017 12:00 15,0 C 83 % 1023,7 hPa 0,0 l/m W-SW 0,00 h 224 W/m 14,1 km/h (3 Bft)
12.10.2017 13:00 15,8 C 79 % 1023,8 hPa 0,0 l/m W-SW 0,00 h 185 W/m 14,1 km/h (3 Bft)
12.10.2017 14:00 15,7 C 78 % 1023,9 hPa 0,0 l/m W-SW 0,00 h 139 W/m 11,9 km/h (2 Bft)
12.10.2017 15:00 15,9 C 80 % 1024,0 hPa 0,0 l/m W-SW 0,00 h 109 W/m 6,8 km/h (2 Bft)
12.10.2017 16:00 16,4 C 79 % 1023,9 hPa 0,0 l/m SW 0,33 h 183 W/m 9,9 km/h (2 Bft)
12.10.2017 17:00 16,0 C 79 % 1024,0 hPa 0,0 l/m SW 0,08 h 78 W/m 10,2 km/h (2 Bft)
12.10.2017 18:00 14,9 C 81 % 1024,1 hPa 0,0 l/m W-SW 0,08 h 17 W/m 6,2 km/h (2 Bft)
12.10.2017 19:00 13,3 C 88 % 1024,4 hPa 0,0 l/m W-SW 0,00 h 0 W/m 4,3 km/h (1 Bft)
12.10.2017 20:00 12,6 C 91 % 1024,9 hPa 0,0 l/m W-SW 0,00 h 0 W/m 2,8 km/h (1 Bft)
12.10.2017 21:00 12,9 C 89 % 1025,4 hPa 0,0 l/m W-SW 0,00 h 0 W/m 3,9 km/h (1 Bft)
12.10.2017 22:00 13,3 C 86 % 1025,6 hPa 0,0 l/m W-SW 0,00 h 0 W/m 7,2 km/h (2 Bft)
12.10.2017 23:00 13,2 C 86 % 1025,9 hPa 0,0 l/m W-SW 0,00 h 0 W/m 2,3 km/h (1 Bft)
13.10.2017 00:00 12,1 C 91 % 1026,0 hPa 0,0 l/m N 0,00 h 0 W/m 0,0 km/h (0 Bft)
13.10.2017 01:00 11,1 C 94 % 1026,1 hPa 0,0 l/m N 0,00 h 0 W/m 0,0 km/h (0 Bft)
13.10.2017 02:00 10,7 C 96 % 1026,2 hPa 0,0 l/m N 0,00 h 0 W/m 0,0 km/h (0 Bft)
13.10.2017 03:00 10,3 C 97 % 1026,0 hPa 0,0 l/m N 0,00 h 0 W/m 0,0 km/h (0 Bft)
13.10.2017 04:00 9,7 C 97 % 1025,9 hPa 0,0 l/m N 0,00 h 0 W/m 0,0 km/h (0 Bft)
13.10.2017 05:00 9,0 C 97 % 1025,8 hPa 0,0 l/m N 0,00 h 0 W/m 0,0 km/h (0 Bft)
13.10.2017 06:00 8,2 C 98 % 1025,9 hPa 0,0 l/m N 0,00 h 0 W/m 0,0 km/h (0 Bft)
13.10.2017 07:00 7,6 C 98 % 1026,0 hPa 0,0 l/m N 0,08 h 10 W/m 0,0 km/h (0 Bft)
13.10.2017 08:00 7,8 C 99 % 1026,2 hPa 0,0 l/m N 0,00 h 57 W/m 0,0 km/h (0 Bft)
13.10.2017 09:00 8,8 C 99 % 1026,8 hPa 0,0 l/m N 0,08 h 135 W/m 0,0 km/h (0 Bft)
13.10.2017 10:00 9,8 C 99 % 1027,0 hPa 0,0 l/m N 0,33 h 227 W/m 0,0 km/h (0 Bft)
13.10.2017 11:00 12,8 C 95 % 1027,0 hPa 0,0 l/m W-SW 1,00 h 360 W/m 1,2 km/h (1 Bft)
13.10.2017 12:00 15,1 C 83 % 1026,8 hPa 0,0 l/m N 0,67 h 389 W/m 0,7 km/h (0 Bft)
13.10.2017 13:00 17,0 C 73 % 1026,1 hPa 0,0 l/m W-SW 1,00 h 545 W/m 3,3 km/h (1 Bft)
13.10.2017 14:00 18,3 C 67 % 1025,5 hPa 0,0 l/m W-SW 1,00 h 497 W/m 4,8 km/h (1 Bft)
13.10.2017 15:00 18,5 C 65 % 1025,1 hPa 0,0 l/m W 1,00 h 408 W/m 5,3 km/h (1 Bft)
13.10.2017 16:00 18,6 C 64 % 1024,8 hPa 0,0 l/m W 1,00 h 295 W/m 2,8 km/h (1 Bft)
13.10.2017 17:00 18,3 C 65 % 1024,8 hPa 0,0 l/m W 0,58 h 98 W/m 4,3 km/h (1 Bft)
13.10.2017 18:00 14,9 C 81 % 1025,1 hPa 0,0 l/m N 0,08 h 13 W/m 0,5 km/h (0 Bft)
13.10.2017 19:00 12,2 C 90 % 1025,4 hPa 0,0 l/m N 0,00 h 0 W/m 0,0 km/h (0 Bft)
13.10.2017 20:00 11,2 C 93 % 1025,9 hPa 0,0 l/m N 0,00 h 0 W/m 0,0 km/h (0 Bft)
13.10.2017 21:00 10,2 C 95 % 1026,1 hPa 0,0 l/m N 0,00 h 0 W/m 0,0 km/h (0 Bft)
13.10.2017 22:00 9,6 C 96 % 1026,5 hPa 0,0 l/m W 0,00 h 0 W/m 1,3 km/h (1 Bft)
13.10.2017 23:00 9,5 C 97 % 1026,4 hPa 0,0 l/m N 0,00 h 0 W/m 0,5 km/h (0 Bft)
14.10.2017 00:00 9,0 C 97 % 1026,4 hPa 0,0 l/m N 0,00 h 0 W/m 0,0 km/h (0 Bft)
14.10.2017 01:00 8,2 C 97 % 1026,7 hPa 0,0 l/m N 0,00 h 0 W/m 0,3 km/h (0 Bft)
14.10.2017 02:00 7,8 C 97 % 1026,8 hPa 0,0 l/m N 0,00 h 0 W/m 0,4 km/h (0 Bft)
14.10.2017 03:00 7,3 C 98 % 1026,5 hPa 0,0 l/m N 0,00 h 0 W/m 0,0 km/h (0 Bft)
14.10.2017 04:00 7,3 C 98 % 1026,5 hPa 0,0 l/m W 0,00 h 0 W/m 1,6 km/h (1 Bft)
14.10.2017 05:00 6,8 C 98 % 1026,4 hPa 0,0 l/m N 0,00 h 0 W/m 0,0 km/h (0 Bft)
14.10.2017 06:00 6,3 C 98 % 1026,7 hPa 0,0 l/m N 0,00 h 0 W/m 0,0 km/h (0 Bft)
14.10.2017 07:00 5,9 C 98 % 1026,8 hPa 0,0 l/m N 0,08 h 9 W/m 0,0 km/h (0 Bft)
14.10.2017 08:00 6,3 C 98 % 1027,2 hPa 0,0 l/m N 0,58 h 71 W/m 0,0 km/h (0 Bft)
14.10.2017 09:00 8,2 C 99 % 1027,5 hPa 0,0 l/m N 0,92 h 216 W/m 0,0 km/h (0 Bft)
14.10.2017 10:00 11,4 C 96 % 1027,6 hPa 0,0 l/m N 1,00 h 373 W/m 0,0 km/h (0 Bft)
14.10.2017 11:00 14,7 C 83 % 1027,3 hPa 0,0 l/m W 0,92 h 445 W/m 4,5 km/h (1 Bft)
14.10.2017 12:00 17,2 C 73 % 1027,0 hPa 0,0 l/m W 1,00 h 538 W/m 5,3 km/h (1 Bft)
14.10.2017 13:00 19,0 C 61 % 1026,4 hPa 0,0 l/m W 1,00 h 544 W/m 4,8 km/h (1 Bft)
14.10.2017 14:00 20,3 C 57 % 1025,9 hPa 0,0 l/m W 1,00 h 497 W/m 3,5 km/h (1 Bft)
14.10.2017 15:00 20,9 C 53 % 1025,6 hPa 0,0 l/m N 1,00 h 400 W/m 2,1 km/h (1 Bft)
14.10.2017 16:00 21,1 C 54 % 1025,4 hPa 0,0 l/m W 1,00 h 260 W/m 4,3 km/h (1 Bft)
14.10.2017 17:00 20,2 C 63 % 1025,3 hPa 0,0 l/m W-NW 0,42 h 85 W/m 5,5 km/h (1 Bft)
14.10.2017 18:00 16,4 C 82 % 1025,4 hPa 0,0 l/m N 0,00 h 12 W/m 0,1 km/h (0 Bft)
14.10.2017 19:00 14,1 C 91 % 1025,9 hPa 0,0 l/m N 0,00 h 0 W/m 0,1 km/h (0 Bft)
14.10.2017 20:00 12,9 C 94 % 1025,9 hPa 0,0 l/m N 0,00 h 0 W/m 0,0 km/h (0 Bft)
14.10.2017 21:00 11,8 C 95 % 1026,2 hPa 0,0 l/m N 0,00 h 0 W/m 0,0 km/h (0 Bft)
14.10.2017 22:00 11,4 C 96 % 1026,3 hPa 0,0 l/m N 0,00 h 0 W/m 0,0 km/h (0 Bft)
14.10.2017 23:00 10,4 C 96 % 1026,5 hPa 0,0 l/m N 0,00 h 0 W/m 0,0 km/h (0 Bft)
15.10.2017 00:00 9,4 C 97 % 1026,4 hPa 0,0 l/m N 0,00 h 0 W/m 0,0 km/h (0 Bft)
15.10.2017 01:00 8,7 C 97 % 1026,4 hPa 0,0 l/m N 0,00 h 0 W/m 0,0 km/h (0 Bft)
15.10.2017 02:00 8,0 C 97 % 1026,4 hPa 0,0 l/m N 0,00 h 0 W/m 0,0 km/h (0 Bft)
15.10.2017 03:00 7,8 C 98 % 1026,3 hPa 0,0 l/m N 0,00 h 0 W/m 0,0 km/h (0 Bft)
15.10.2017 04:00 7,3 C 98 % 1026,0 hPa 0,0 l/m N 0,00 h 0 W/m 0,0 km/h (0 Bft)
15.10.2017 05:00 7,5 C 98 % 1026,2 hPa 0,0 l/m N 0,00 h 0 W/m 0,0 km/h (0 Bft)
15.10.2017 06:00 7,5 C 99 % 1026,2 hPa 0,0 l/m N 0,00 h 0 W/m 0,0 km/h (0 Bft)
15.10.2017 07:00 7,1 C 99 % 1026,2 hPa 0,0 l/m N 0,00 h 8 W/m 0,0 km/h (0 Bft)
15.10.2017 08:00 6,9 C 99 % 1026,4 hPa 0,0 l/m N 0,00 h 41 W/m 0,0 km/h (0 Bft)
15.10.2017 09:00 7,8 C 99 % 1026,7 hPa 0,0 l/m N 0,17 h 138 W/m 0,0 km/h (0 Bft)
15.10.2017 10:00 8,9 C 100 % 1026,8 hPa 0,0 l/m N 0,83 h 300 W/m 0,0 km/h (0 Bft)
15.10.2017 11:00 12,3 C 98 % 1026,7 hPa 0,0 l/m N 0,92 h 435 W/m 0,0 km/h (0 Bft)
15.10.2017 12:00 16,6 C 82 % 1026,1 hPa 0,0 l/m N 1,00 h 527 W/m 0,0 km/h (0 Bft)
15.10.2017 13:00 18,8 C 74 % 1025,4 hPa 0,0 l/m N 1,00 h 532 W/m 0,0 km/h (0 Bft)
15.10.2017 14:00 20,2 C 72 % 1024,7 hPa 0,0 l/m N 1,00 h 484 W/m 0,0 km/h (0 Bft)
15.10.2017 15:00 20,8 C 71 % 1024,3 hPa 0,0 l/m S-SW 1,00 h 390 W/m 8,7 km/h (2 Bft)
15.10.2017 16:00 20,5 C 70 % 1024,1 hPa 0,0 l/m S-SW 1,00 h 254 W/m 7,6 km/h (2 Bft)
15.10.2017 17:00 19,0 C 75 % 1024,0 hPa 0,0 l/m N 0,33 h 80 W/m 2,8 km/h (1 Bft)
15.10.2017 18:00 16,1 C 84 % 1024,2 hPa 0,0 l/m N 0,00 h 12 W/m 0,3 km/h (0 Bft)
15.10.2017 19:00 13,0 C 92 % 1024,7 hPa 0,0 l/m N 0,00 h 0 W/m 0,0 km/h (0 Bft)
15.10.2017 20:00 11,4 C 95 % 1024,9 hPa 0,0 l/m N 0,00 h 0 W/m 0,0 km/h (0 Bft)
15.10.2017 21:00 10,4 C 96 % 1025,0 hPa 0,0 l/m N 0,00 h 0 W/m 0,0 km/h (0 Bft)
15.10.2017 22:00 9,5 C 97 % 1025,2 hPa 0,0 l/m N 0,00 h 0 W/m 0,0 km/h (0 Bft)
15.10.2017 23:00 8,8 C 97 % 1025,6 hPa 0,0 l/m N 0,00 h 0 W/m 0,0 km/h (0 Bft)
Min-Datum _ 14.10.17 14.10.17 11.10.17 - - - - 09.10.17
_ Min-Zeit 07:20 14:55 17:05 - - - - 00:00
Minimum _ 5,8 C 51 % 1017,8 hPa - - - - 0,0 km/h (0 Bft)
Max-Datum _ 14.10.17 10.10.17 14.10.17 09.10.17 - 09.10.17 09.10.17 10.10.17
_ Max-Zeit 15:50 08:20 09:30 13:40 - 11:30 12:50 11:55
Maximum _ 21,3 C 100 % 1027,6 hPa 1,6 l/m - 0,08 h 682 W/m 27,4 km/h
S-SW (4 Bft)
Durchschnitt _ 11,3 C 90 % 1022,6 hPa #2,0 l/m W-SW #34:10 h 213 W/m 3,8 km/h (1 Bft)